(Default Airport = EGHI - Southampton International)

METAR = EGHI 231250Z 25009KT 220V290 9999 FEW036 11/02 Q1002

STATION........ EGHI
OBSERVED....... Thu Nov 23, 12:50 GMT
NOW............ Thu Nov 23, 13:15 GMT
AGE............ 25 min ago
WIND........... WSW at 10 mph
VISIBILITY..... 16 miles
CLOUDS......... partly cloudy
TEMP........... 52°F (11°C)
DEWPT.......... 36°F (2°C)
HUMIDITY....... 54%
BAROMETER...... 1002 hPa (29.59 in Hg)


    Get Weather Info from Airport: